createdAt,value
2023-02-18T00:00:30.833Z,95299
2023-02-18T00:03:56.854Z,95300
2023-02-18T00:07:22.111Z,95306
2023-02-18T00:10:47.405Z,95301
2023-02-18T00:14:12.654Z,95308
2023-02-18T00:17:37.874Z,95308
2023-02-18T00:21:03.122Z,95305
2023-02-18T00:24:28.380Z,95306
2023-02-18T00:27:53.639Z,95298
2023-02-18T00:31:19.074Z,95310
2023-02-18T00:34:44.142Z,95314
2023-02-18T00:38:10.364Z,95314
2023-02-18T00:41:35.628Z,95312
2023-02-18T00:45:00.915Z,95307
2023-02-18T00:48:26.206Z,95305
2023-02-18T00:51:51.460Z,95297
2023-02-18T00:55:16.729Z,95300
2023-02-18T00:58:41.952Z,95299
2023-02-18T01:02:07.263Z,95302
2023-02-18T01:05:32.534Z,95302
2023-02-18T01:08:57.794Z,95301
2023-02-18T01:12:23.062Z,95306
2023-02-18T01:15:48.369Z,95308
2023-02-18T01:19:13.579Z,95313
2023-02-18T01:22:38.876Z,95308
2023-02-18T01:26:04.183Z,95299
2023-02-18T01:29:29.385Z,95294
2023-02-18T01:32:54.660Z,95295
2023-02-18T01:36:19.931Z,95289
2023-02-18T01:39:45.148Z,95293
2023-02-18T01:43:10.456Z,95295
2023-02-18T01:46:35.813Z,95286
2023-02-18T01:50:01.059Z,95281
2023-02-18T01:53:26.307Z,95282
2023-02-18T01:56:51.626Z,95281
2023-02-18T02:00:16.825Z,95282
2023-02-18T02:03:42.097Z,95273
2023-02-18T02:07:07.395Z,95273
2023-02-18T02:10:32.622Z,95263
2023-02-18T02:13:57.902Z,95273
2023-02-18T02:17:23.164Z,95276
2023-02-18T02:20:48.450Z,95281
2023-02-18T02:24:13.705Z,95283
2023-02-18T02:27:38.972Z,95288
2023-02-18T02:31:04.361Z,95288
2023-02-18T02:34:29.524Z,95277
2023-02-18T02:37:54.825Z,95281
2023-02-18T02:41:20.072Z,95284
2023-02-18T02:44:45.372Z,95286
2023-02-18T02:48:10.699Z,95277
2023-02-18T02:51:35.930Z,95281
2023-02-18T02:55:01.265Z,95275
2023-02-18T02:58:26.462Z,95272
2023-02-18T03:01:51.875Z,95269
2023-02-18T03:05:17.044Z,95268
2023-02-18T03:08:42.268Z,95263
2023-02-18T03:12:07.609Z,95264
2023-02-18T03:15:32.846Z,95276
2023-02-18T03:18:58.118Z,95283
2023-02-18T03:22:23.461Z,95280
2023-02-18T03:25:48.680Z,95272
2023-02-18T03:29:13.972Z,95272
2023-02-18T03:32:39.269Z,95261
2023-02-18T03:36:04.512Z,95263
2023-02-18T03:39:29.791Z,95276
2023-02-18T03:42:55.034Z,95274
2023-02-18T03:46:20.357Z,95279
2023-02-18T03:49:45.618Z,95291
2023-02-18T03:53:10.867Z,95290
2023-02-18T03:56:36.196Z,95287
2023-02-18T04:00:01.494Z,95289
2023-02-18T04:03:26.758Z,95283
2023-02-18T04:06:52.071Z,95282
2023-02-18T04:10:17.344Z,95277
2023-02-18T04:13:42.606Z,95269
2023-02-18T04:17:07.859Z,95279
2023-02-18T04:20:33.106Z,95276
2023-02-18T04:23:58.381Z,95274
2023-02-18T04:27:23.644Z,95286
2023-02-18T04:30:49.016Z,95286
2023-02-18T04:34:14.131Z,95278
2023-02-18T04:37:39.394Z,95281
2023-02-18T04:41:04.696Z,95277
2023-02-18T04:44:29.926Z,95281
2023-02-18T04:47:55.209Z,95272
2023-02-18T04:51:20.494Z,95259
2023-02-18T04:54:45.731Z,95259
2023-02-18T04:58:11.021Z,95258
2023-02-18T05:01:36.350Z,95258
2023-02-18T05:05:01.607Z,95249
2023-02-18T05:08:26.884Z,95237
2023-02-18T05:11:52.145Z,95243
2023-02-18T05:15:17.422Z,95238
2023-02-18T05:18:42.705Z,95246
2023-02-18T05:22:08.033Z,95239
2023-02-18T05:25:33.294Z,95218
2023-02-18T05:28:58.562Z,95203
2023-02-18T05:32:23.813Z,95194
2023-02-18T05:35:49.048Z,95195
2023-02-18T05:39:14.381Z,95203
2023-02-18T05:42:39.588Z,95217
2023-02-18T05:46:04.899Z,95204
2023-02-18T05:49:30.031Z,95199
2023-02-18T05:52:55.201Z,95184
2023-02-18T05:56:20.405Z,95196
2023-02-18T05:59:45.641Z,95185
2023-02-18T06:03:10.820Z,95174
2023-02-18T06:06:36.006Z,95189
2023-02-18T06:10:01.199Z,95191
2023-02-18T06:13:26.390Z,95189
2023-02-18T06:16:51.544Z,95189
2023-02-18T06:20:16.721Z,95169
2023-02-18T06:23:41.892Z,95169
2023-02-18T06:27:07.131Z,95168
2023-02-18T06:30:32.424Z,95161
2023-02-18T06:33:57.505Z,95161
2023-02-18T06:37:22.729Z,95156
2023-02-18T06:40:47.959Z,95145
2023-02-18T06:44:13.184Z,95137
2023-02-18T06:47:38.407Z,95122
2023-02-18T06:51:03.574Z,95134
2023-02-18T06:54:28.741Z,95139
2023-02-18T06:57:53.926Z,95126
2023-02-18T07:01:19.125Z,95116
2023-02-18T07:04:44.320Z,95117
2023-02-18T07:08:09.501Z,95109
2023-02-18T07:11:34.716Z,95110
2023-02-18T07:14:59.939Z,95104
2023-02-18T07:18:25.109Z,95109
2023-02-18T07:21:50.289Z,95106
2023-02-18T07:25:15.437Z,95100
2023-02-18T07:28:40.604Z,95098
2023-02-18T07:32:05.848Z,95084
2023-02-18T07:35:31.003Z,95090
2023-02-18T07:38:56.197Z,95086
2023-02-18T07:42:21.359Z,95075
2023-02-18T07:45:46.638Z,95070
2023-02-18T07:49:11.877Z,95075
2023-02-18T07:52:37.092Z,95068
2023-02-18T07:56:02.277Z,95075
2023-02-18T07:59:27.534Z,95062
2023-02-18T08:02:54.134Z,95052
2023-02-18T08:06:19.493Z,95046
2023-02-18T08:09:44.707Z,95029
2023-02-18T08:13:09.955Z,95025
2023-02-18T08:16:35.154Z,95034
2023-02-18T08:20:00.302Z,95030
2023-02-18T08:23:25.559Z,95011
2023-02-18T08:27:00.153Z,95004
2023-02-18T08:30:16.114Z,94997
2023-02-18T08:33:41.247Z,94990
2023-02-18T08:37:06.459Z,94998
2023-02-18T08:40:31.688Z,94999
2023-02-18T08:43:56.915Z,95014
2023-02-18T08:48:13.835Z,95001
2023-02-18T08:50:47.404Z,95005
2023-02-18T08:54:12.664Z,95006
2023-02-18T08:57:37.880Z,94993
2023-02-18T09:01:03.208Z,95006
2023-02-18T09:04:28.490Z,95011
2023-02-18T09:07:53.608Z,95014
2023-02-18T09:11:18.849Z,95013
2023-02-18T09:14:44.058Z,95040
2023-02-18T09:18:09.290Z,95038
2023-02-18T09:21:34.510Z,95028
2023-02-18T09:24:59.670Z,95051
2023-02-18T09:28:25.016Z,95043
2023-02-18T09:31:50.393Z,95041
2023-02-18T09:35:15.554Z,95041
2023-02-18T09:38:40.967Z,95042
2023-02-18T09:42:06.132Z,95038
2023-02-18T09:45:31.404Z,95040
2023-02-18T09:48:56.689Z,95033
2023-02-18T09:52:21.931Z,95048
2023-02-18T09:55:47.224Z,95045
2023-02-18T09:59:12.458Z,95040
2023-02-18T10:02:37.700Z,95029
2023-02-18T10:06:02.928Z,94998
2023-02-18T10:09:28.197Z,95033
2023-02-18T10:12:53.443Z,95027
2023-02-18T10:16:18.728Z,95026
2023-02-18T10:19:43.864Z,95007
2023-02-18T10:23:09.159Z,95003
2023-02-18T10:26:34.440Z,95000
2023-02-18T10:29:59.755Z,94999
2023-02-18T10:33:25.181Z,95003
2023-02-18T10:36:50.462Z,95007
2023-02-18T10:40:15.723Z,95000
2023-02-18T10:43:40.977Z,94999
2023-02-18T10:47:06.262Z,94997
2023-02-18T10:50:31.516Z,94980
2023-02-18T10:53:56.718Z,94975
2023-02-18T10:57:21.974Z,94975
2023-02-18T11:00:47.153Z,94987
2023-02-18T11:04:12.456Z,94967
2023-02-18T11:07:37.733Z,94985
2023-02-18T11:11:03.028Z,94964
2023-02-18T11:14:28.271Z,94968
2023-02-18T11:17:53.554Z,94966
2023-02-18T11:21:21.182Z,94948
2023-02-18T11:24:44.151Z,94945
2023-02-18T11:28:09.435Z,94943
2023-02-18T11:31:34.737Z,94947
2023-02-18T11:34:59.851Z,94944
2023-02-18T11:38:25.029Z,94942
2023-02-18T11:41:50.179Z,94918
2023-02-18T11:45:15.371Z,94917
2023-02-18T11:48:40.649Z,94920
2023-02-18T11:52:05.906Z,94934
2023-02-18T11:55:31.198Z,94950
2023-02-18T11:58:56.454Z,94958
2023-02-18T12:02:21.736Z,94939
2023-02-18T12:05:47.007Z,94935
2023-02-18T12:09:12.281Z,94926
2023-02-18T12:12:37.679Z,94925
2023-02-18T12:16:03.081Z,94930
2023-02-18T12:19:28.287Z,94928
2023-02-18T12:22:53.591Z,94917
2023-02-18T12:26:18.844Z,94904
2023-02-18T12:29:44.163Z,94923
2023-02-18T12:33:09.509Z,94912
2023-02-18T12:36:34.828Z,94924
2023-02-18T12:40:00.509Z,94915
2023-02-18T12:43:25.785Z,94908
2023-02-18T12:46:51.129Z,94905
2023-02-18T12:50:16.398Z,94889
2023-02-18T12:53:41.795Z,94891
2023-02-18T12:57:07.039Z,94894
2023-02-18T13:00:32.359Z,94900
2023-02-18T13:03:57.674Z,94895
2023-02-18T13:07:23.018Z,94885
2023-02-18T13:10:48.375Z,94871
2023-02-18T13:14:13.697Z,94899
2023-02-18T13:17:39.029Z,94900
2023-02-18T13:21:05.701Z,94916
2023-02-18T13:24:29.676Z,94902
2023-02-18T13:27:54.988Z,94898
2023-02-18T13:31:20.626Z,94902
2023-02-18T13:34:45.601Z,94904
2023-02-18T13:38:10.950Z,94895
2023-02-18T13:41:36.310Z,94900
2023-02-18T13:45:01.581Z,94901
2023-02-18T13:48:26.955Z,94901
2023-02-18T13:51:52.244Z,94905
2023-02-18T13:55:17.533Z,94895
2023-02-18T13:58:42.881Z,94903
2023-02-18T14:02:08.254Z,94910
2023-02-18T14:05:33.506Z,94915
2023-02-18T14:08:58.867Z,94923
2023-02-18T14:12:24.210Z,94928
2023-02-18T14:15:49.571Z,94925
2023-02-18T14:19:14.898Z,94913
2023-02-18T14:22:40.141Z,94931
2023-02-18T14:26:05.443Z,94932
2023-02-18T14:29:30.771Z,94926
2023-02-18T15:05:41.858Z,94962
2023-02-18T15:09:07.137Z,94958
2023-02-18T15:12:32.400Z,94950
2023-02-18T15:15:57.749Z,94958
2023-02-18T15:19:23.027Z,94955
2023-02-18T15:22:48.421Z,94959
2023-02-18T15:26:13.716Z,94966
2023-02-18T15:29:39.035Z,94982
2023-02-18T15:33:04.284Z,94971
2023-02-18T15:36:29.546Z,94964
2023-02-18T15:39:54.880Z,94960
2023-02-18T15:43:20.126Z,94953
2023-02-18T15:46:45.434Z,94954
2023-02-18T15:50:10.642Z,94953
2023-02-18T15:53:35.918Z,94945
2023-02-18T15:57:01.204Z,94950
2023-02-18T16:00:26.545Z,94945
2023-02-18T16:03:51.752Z,94944
2023-02-18T16:07:17.062Z,94950
2023-02-18T16:10:42.308Z,94960
2023-02-18T16:14:07.592Z,94967
2023-02-18T16:17:32.825Z,94971
2023-02-18T16:20:58.063Z,94967
2023-02-18T16:24:23.313Z,94968
2023-02-18T16:27:48.644Z,94978
2023-02-18T16:31:13.968Z,94970
2023-02-18T16:34:39.617Z,94979
2023-02-18T16:38:04.873Z,94977
2023-02-18T16:41:30.131Z,94976
2023-02-18T16:44:55.399Z,94978
2023-02-18T16:48:20.814Z,94977
2023-02-18T16:51:47.890Z,94981
2023-02-18T16:55:13.111Z,94990
2023-02-18T16:58:38.386Z,94988
2023-02-18T17:02:03.725Z,94990
2023-02-18T17:05:29.141Z,94992
2023-02-18T17:08:54.577Z,94999
2023-02-18T17:12:20.052Z,94999
2023-02-18T17:15:47.762Z,95002
2023-02-18T17:19:11.145Z,95001
2023-02-18T17:22:36.650Z,94993
2023-02-18T17:26:03.604Z,94991
2023-02-18T17:29:29.211Z,94992
2023-02-18T17:32:54.541Z,94987
2023-02-18T17:36:20.678Z,94996
2023-02-18T17:39:47.820Z,95002
2023-02-18T17:43:13.422Z,95004
2023-02-18T17:46:38.873Z,95006
2023-02-18T17:50:04.291Z,95011
2023-02-18T17:53:29.715Z,95016
2023-02-18T17:56:55.754Z,95028
2023-02-18T18:00:21.260Z,95024
2023-02-18T18:03:46.719Z,95021
2023-02-18T18:07:12.104Z,95022
2023-02-18T18:10:37.423Z,95024
2023-02-18T18:14:02.675Z,95018
2023-02-18T18:17:28.698Z,95020
2023-02-18T18:20:54.048Z,95013
2023-02-18T18:24:19.380Z,95027
2023-02-18T18:27:44.633Z,95027
2023-02-18T18:31:10.312Z,95037
2023-02-18T18:34:35.316Z,95038
2023-02-18T18:38:00.580Z,95046
2023-02-18T18:41:25.952Z,95045
2023-02-18T18:44:51.350Z,95042
2023-02-18T18:48:16.632Z,95044
2023-02-18T18:51:41.878Z,95055
2023-02-18T18:55:07.184Z,95056
2023-02-18T18:58:32.522Z,95050
2023-02-18T19:01:57.849Z,95055
2023-02-18T19:05:23.171Z,95056
2023-02-18T19:08:48.455Z,95063
2023-02-18T19:12:13.779Z,95063
2023-02-18T19:15:39.264Z,95063
2023-02-18T19:19:04.445Z,95070
2023-02-18T19:22:29.757Z,95072
2023-02-18T19:25:55.030Z,95074
2023-02-18T19:29:20.277Z,95076
2023-02-18T19:32:45.580Z,95080
2023-02-18T19:36:10.858Z,95091
2023-02-18T19:39:36.135Z,95086
2023-02-18T19:43:01.353Z,95089
2023-02-18T19:46:26.682Z,95086
2023-02-18T19:49:51.956Z,95083
2023-02-18T19:53:17.257Z,95085
2023-02-18T19:56:42.566Z,95087
2023-02-18T20:00:07.971Z,95082
2023-02-18T20:03:33.288Z,95080
2023-02-18T20:06:58.605Z,95085
2023-02-18T20:10:23.975Z,95082
2023-02-18T20:13:49.298Z,95077
2023-02-18T20:17:14.544Z,95084
2023-02-18T20:20:39.878Z,95083
2023-02-18T20:24:05.169Z,95084
2023-02-18T20:27:30.482Z,95087
2023-02-18T20:30:55.836Z,95093
2023-02-18T20:34:21.032Z,95093
2023-02-18T20:37:46.347Z,95094
2023-02-18T20:41:12.035Z,95089
2023-02-18T20:44:36.940Z,95086
2023-02-18T20:48:02.280Z,95092
2023-02-18T20:51:27.539Z,95088
2023-02-18T20:54:52.785Z,95096
2023-02-18T20:58:18.023Z,95096
2023-02-18T21:01:43.392Z,95109
2023-02-18T21:05:08.793Z,95105
2023-02-18T21:08:33.956Z,95114
2023-02-18T21:11:59.307Z,95114
2023-02-18T21:15:24.588Z,95110
2023-02-18T21:18:49.901Z,95100
2023-02-18T21:22:15.211Z,95105
2023-02-18T21:25:40.485Z,95100
2023-02-18T21:29:05.741Z,95101
2023-02-18T21:32:31.173Z,95111
2023-02-18T21:35:56.477Z,95106
2023-02-18T21:39:21.742Z,95103
2023-02-18T21:42:47.040Z,95105
2023-02-18T21:46:12.352Z,95106
2023-02-18T21:49:37.632Z,95103
2023-02-18T21:53:02.906Z,95102
2023-02-18T21:56:28.212Z,95097
2023-02-18T21:59:53.575Z,95092
2023-02-18T22:03:18.859Z,95105
2023-02-18T22:06:44.209Z,95098
2023-02-18T22:10:09.498Z,95090
2023-02-18T22:13:34.784Z,95089
2023-02-18T22:17:00.041Z,95092
2023-02-18T22:20:25.330Z,95089
2023-02-18T22:23:50.643Z,95089
2023-02-18T22:27:15.958Z,95097
2023-02-18T22:30:41.262Z,95086
2023-02-18T22:34:06.501Z,95079
2023-02-18T22:37:31.798Z,95074
2023-02-18T22:40:57.079Z,95076
2023-02-18T22:44:22.393Z,95062
2023-02-18T22:47:47.712Z,95058
2023-02-18T22:51:12.955Z,95054
2023-02-18T22:54:38.254Z,95057
2023-02-18T22:58:03.536Z,95054
2023-02-18T23:01:28.940Z,95064
2023-02-18T23:04:54.277Z,95058
2023-02-18T23:08:19.508Z,95064
2023-02-18T23:11:44.862Z,95056
2023-02-18T23:15:10.689Z,95045
2023-02-18T23:18:35.518Z,95042
2023-02-18T23:22:00.840Z,95042
2023-02-18T23:25:26.075Z,95034
2023-02-18T23:28:51.346Z,95025
2023-02-18T23:32:16.616Z,95023
2023-02-18T23:35:41.869Z,95023
2023-02-18T23:39:07.149Z,95012
2023-02-18T23:42:32.369Z,95004
2023-02-18T23:45:57.659Z,95011
2023-02-18T23:49:22.881Z,95023
2023-02-18T23:52:48.149Z,95025
2023-02-18T23:56:13.432Z,95024
2023-02-18T23:59:38.645Z,95019
